Ana Sayfa
METAR-TAF:

METAR-TAF

Havaalanları :

New York, New York, Amerika Birleşik Devletleri

Enlem: 40-42-04N, Boylam: 074-00-32W, yükseklik: 2 m

Güncel hava durumu gözlemi

Rapor saat 05:56 UTC de 43 dakika önce yapıldı.
Rüzgar batıdan 5 kt
Sıcaklık 18°C
Nem 52%
Basınç 1023 hPa
Görüş mesafesi: 16.1 km
Açık gökyüzü

METAR: KJRB 230556Z AUTO 27005KT 10SM CLR 18/08 A3021 RMK AO2 SLP229 T01780083 10211 20178 58010

Saat: 02:39 (06:39 UTC)


TAF: eksik

4.000'den fazla havaalanı için hava durumu gözlemleri ve tahminleri (METAR ve TAF raporları).

Kullanılabilir istasyonlar harita üzerinde sarı ve kırmızı noktalarla gösterilir.

İstasyonun adını görmek için fareyi noktanın üzerinde gezdirin.

Sonrasında hava gözlem ve tahminlerini görmek için tıklayın.

Haritayı değiştirmek için: yaklaştırmak için siyah artı işaretli yeşil düğmeye ve uzaklaştırmak için de eksi işaretli düğmeye hızla tıklayın; bitişik haritalar için yeşil okları kullanın.


METAR-TAF: